Station: Marree Airport

  Atmospheric Gas Attenuation - ITU Rec 676-11   --------------- db/100km ---------------
Date Time Temp RH % AH g/m3 Dew Point Wind Direction Speed kph Gust kph Barometer mB Rainfall Since 9am 24GHz 47GHz 76GHz 122GHz 134GHz 241GHz
16 19:10 28.2 12 3.3 -3.9 11 13 1014 0 8.0 15.7 17.5 44.9 29.7 98.6
16 19:00 28.7 11 3.11 -4.6 17 20 1014 0 7.6 15.4 16.9 43.3 27.8 92.1
16 18:50 28.9 11 3.14 -4.5 19 20 1013.9 0 7.7 15.4 16.9 43.4 28.0 92.8
16 18:40 28.3 12 3.32 -3.8 11 11 1013.7 0 8.1 15.7 17.5 45.0 29.8 99.0
16 18:30 29.5 12 3.54 -2.9 17 24 1013.6 0 8.5 15.7 17.9 46.0 31.3 104.5
16 18:20 28.8 11 3.13 -4.6 17 20 1013.7 0 7.7 15.4 16.9 43.4 28.0 92.6
16 18:10 28.6 11 3.09 -4.7 22 26 1013.5 0 7.6 15.3 16.8 43.2 27.7 91.5
16 18:00 28.6 11 3.09 -4.7 19 30 1013.6 0 7.6 15.4 16.8 43.2 27.7 91.5
16 17:50 28.6 12 3.37 -3.6 9 13 1013.6 0 8.1 15.7 17.6 45.2 30.1 100.3
16 17:40 29.2 12 3.49 -3.1 15 20 1013.6 0 8.4 15.7 17.8 45.8 31.0 103.3
16 17:30 28.7 12 3.39 -3.5 17 30 1013.7 0 8.2 15.7 17.6 45.3 30.3 100.8
16 17:20 29.2 12 3.49 -3.1 15 20 1013.6 0 8.4 15.7 17.8 45.8 31.0 103.3
16 17:10 28.5 12 3.35 -3.6 11 17 1013.6 0 8.1 15.7 17.5 45.1 30.0 99.8
16 17:00 28.6 12 3.37 -3.6 19 28 1013.7 0 8.1 15.7 17.6 45.2 30.1 100.3
16 16:50 28.7 12 3.39 -3.5 20 20 1013.8 0 8.2 15.7 17.6 45.3 30.3 100.8
16 16:40 28.6 14 3.93 -1.5 9 11 1014 0 9.3 16.3 19.1 49.3 35.2 118.1
16 16:30 28.8 13 3.69 -2.3 15 26 1014 0 8.8 16.0 18.4 47.5 32.9 110.2
16 16:20 28.9 14 4 -1.2 22 28 1014 0 9.4 16.3 19.2 49.7 35.7 120.0
16 16:10 28.6 14 3.93 -1.5 19 22 1014.1 0 9.3 16.3 19.1 49.3 35.2 118.1
16 16:00 28.8 14 3.98 -1.3 15 28 1014.1 0 9.4 16.3 19.2 49.6 35.6 119.5
16 15:50 28 15 4.08 -1 11 13 1014.2 0 9.6 16.6 19.7 50.8 36.8 123.8
16 15:40 28.5 15 4.19 -0.6 13 15 1014.8 0 9.8 16.6 19.9 51.4 37.6 126.8
16 15:30 27.8 16 4.3 -0.3 9 28 1014.9 0 10.1 16.9 20.3 52.6 39.0 131.4
16 15:20 27.5 16 4.23 -0.5 9 11 1015 0 9.9 16.8 20.2 52.3 38.5 129.6
16 15:10 28.3 16 4.42 0.1 19 20 1015.2 0 10.3 16.9 20.6 53.2 39.9 134.6
16 15:00 26.4 18 4.48 0.2 13 26 1015.3 0 10.5 17.3 21.2 54.9 41.4 139.7
16 14:50 27.4 17 4.47 0.2 22 26 1015.4 0 10.4 17.2 20.9 54.2 40.8 137.7
16 14:40 27.2 17 4.42 0.1 6 9 1015.6 0 10.3 17.1 20.9 53.9 40.4 136.4
16 14:30 26.2 18 4.43 0 19 32 1015.6 0 10.4 17.3 21.1 54.7 41.0 138.3
16 14:20 26.2 17 4.19 -0.8 15 19 1016 0 9.9 17.1 20.4 52.8 38.7 130.3
16 14:10 26.4 18 4.48 0.2 9 13 1016 0 10.5 17.4 21.2 54.9 41.4 139.8
16 14:00 26 19 4.63 0.6 9 24 1016.1 0 10.8 17.6 21.8 56.4 43.1 145.5
16 13:50 25.9 19 4.6 0.5 4 6 1016.2 0 10.7 17.6 21.7 56.2 42.8 144.7
16 13:40 25 20 4.6 0.5 7 13 1016.2 0 10.8 17.8 21.9 56.8 43.3 146.2
16 13:30 24.8 20 4.55 0.3 13 20 1016.2 0 10.7 17.7 21.8 56.6 42.9 144.8
16 13:20 25 20 4.6 0.5 15 19 1016.6 0 10.8 17.8 22.0 56.8 43.3 146.3
16 13:10 24.8 21 4.78 1 7 11 1016.8 0 11.1 18.0 22.5 58.4 45.2 152.9
16 13:00 25.8 20 4.82 1.2 11 26 1016.8 0 11.2 17.9 22.4 58.1 45.0 152.5
16 12:50 24.6 23 5.18 2.1 2 4 1017.1 0 12.0 18.6 23.8 61.8 49.3 167.4
16 12:40 24.1 23 5.03 1.7 9 15 1017.3 0 11.7 18.5 23.5 61.0 48.1 163.1
16 12:30 23.6 23 4.89 1.3 13 20 1017.3 0 11.4 18.4 23.2 60.2 47.0 159.1
16 12:20 23.4 24 5.05 1.7 11 13 1017.5 0 11.7 18.7 23.8 61.7 48.7 165.2
16 12:10 23.6 25 5.32 2.4 4 9 1017.4 0 12.3 19.0 24.5 63.8 51.3 174.5
16 12:00 23.6 25 5.32 2.4 15 20 1017.2 0 12.3 19.0 24.5 63.7 51.3 174.5
16 11:50 22.9 26 5.31 2.4 13 17 1017.4 0 12.3 19.1 24.7 64.2 51.7 175.6
16 11:40 23.8 25 5.38 2.6 9 9 1017.6 0 12.4 19.0 24.7 64.1 51.8 176.3
16 11:30 23.3 26 5.44 2.7 19 26 1017.8 0 12.6 19.2 25.0 65.0 52.8 179.5
16 11:20 23.3 26 5.44 2.7 15 19 1018 0 12.6 19.2 25.0 65.0 52.8 179.6
16 11:10 23.6 26 5.53 3 11 13 1018.2 0 12.7 19.3 25.2 65.6 53.6 182.2
16 11:00 22.6 27 5.42 2.7 13 20 1018.1 0 12.5 19.3 25.2 65.4 53.0 180.4
16 10:50 22.3 27 5.33 2.4 19 24 1018.2 0 12.4 19.3 25.0 64.9 52.3 177.7
16 10:40 22.4 28 5.56 3 19 22 1018.1 0 12.8 19.5 25.7 66.8 54.6 186.0
16 10:30 22.2 28 5.5 2.8 15 24 1018 0 12.7 19.5 25.5 66.4 54.1 184.2
16 10:20 22.2 28 5.5 2.8 17 20 1018 0 12.7 19.5 25.5 66.4 54.1 184.2
16 10:10 21.7 28 5.34 2.4 17 20 1018.1 0 12.4 19.4 25.2 65.4 52.8 179.3
16 10:00 21.8 28 5.37 2.5 15 22 1018.1 0 12.5 19.4 25.3 65.6 53.0 180.2
16 09:50 21 29 5.31 2.3 11 13 1018 0 12.4 19.5 25.3 65.7 52.9 179.7
16 09:40 21.1 29 5.34 2.4 15 20 1018.2 0 12.4 19.5 25.4 65.9 53.2 180.6
16 09:30 20.5 30 5.34 2.3 19 26 1018.1 0 12.4 19.6 25.6 66.4 53.6 181.9
16 09:20 20.5 31 5.52 2.8 17 22 1018.4 0 12.8 19.9 26.1 68.0 55.5 188.8
16 09:10 20.9 31 5.65 3.2 19 22 1018.4 0 13.1 20.0 26.4 68.8 56.6 192.8
16 09:00 20.1 32 5.56 2.9 19 24 1018.1 0 12.9 20.0 26.4 68.6 56.2 191.2
16 08:50 19.5 33 5.54 2.8 22 26 1018.1 0 12.9 20.1 26.5 69.0 56.4 191.8
16 08:40 19.4 33 5.51 2.7 22 24 1017.9 0 12.8 20.1 26.4 68.8 56.1 190.8
16 08:30 19.5 33 5.54 2.8 22 28 1017.7 0 12.9 20.1 26.5 68.9 56.4 191.7
16 08:20 18.9 34 5.51 2.7 20 24 1017.6 0 12.8 20.2 26.6 69.2 56.5 191.9
16 08:10 18.5 34 5.38 2.4 22 24 1017.5 0 12.6 20.1 26.3 68.3 55.3 187.8
16 08:00 18.4 35 5.5 2.7 20 24 1017.1 0 12.8 20.3 26.7 69.4 56.7 192.6
16 07:50 18.2 35 5.44 2.5 20 24 1016.9 0 12.7 20.2 26.6 69.1 56.1 190.7
16 07:40 18.1 35 5.41 2.4 20 22 1016.7 0 12.7 20.2 26.5 68.9 55.9 189.8
16 07:30 17.9 35 5.34 2.2 20 24 1016.5 0 12.5 20.1 26.3 68.4 55.2 187.5
16 07:20 17.8 35 5.31 2.2 20 22 1016.5 0 12.5 20.1 26.2 68.2 55.0 186.5
16 07:10 17.8 35 5.31 2.2 20 22 1016.4 0 12.5 20.1 26.2 68.2 54.9 186.5
16 07:00 17.8 35 5.31 2.2 20 26 1016.2 0 12.5 20.1 26.2 68.2 54.9 186.5
16 06:50 17.9 34 5.19 1.8 22 24 1016 0 12.2 19.9 25.8 67.0 53.5 181.6
16 06:40 17.9 34 5.19 1.8 19 20 1015.8 0 12.2 19.9 25.8 67.0 53.5 181.5
16 06:30 17.9 34 5.19 1.8 20 24 1015.5 0 12.2 19.9 25.8 67.0 53.5 181.5
16 06:20 18 34 5.22 1.9 20 24 1015.3 0 12.3 19.9 25.8 67.1 53.8 182.4
16 06:10 18 34 5.22 1.9 20 22 1015.4 0 12.3 19.9 25.8 67.2 53.8 182.4
16 06:00 18.1 34 5.25 2 22 28 1014.9 0 12.3 19.9 25.9 67.3 54.0 183.3
16 05:50 18.1 34 5.25 2 22 26 1015.1 0 12.3 19.9 25.9 67.3 54.0 183.3
16 05:40 18.2 34 5.28 2.1 24 26 1014.9 0 12.4 19.9 26.0 67.5 54.3 184.2
16 05:30 18.2 34 5.28 2.1 26 30 1014.6 0 12.4 19.9 25.9 67.5 54.3 184.2
16 05:20 18.3 34 5.32 2.2 24 28 1014.6 0 12.5 20.0 26.0 67.7 54.6 185.5
16 05:10 18.4 34 5.35 2.3 28 32 1014.6 0 12.5 20.0 26.1 67.9 54.9 186.4
16 04:50 18.6 35 5.57 2.9 22 28 1014.4 0 13.0 20.2 26.8 69.7 57.2 194.4
16 04:40 18.8 35 5.64 3 30 33 1014.1 0 13.1 20.3 26.9 70.1 57.8 196.6
16 04:30 18.8 35 5.64 3 32 41 1014 0 13.1 20.3 26.9 70.1 57.8 196.6
16 04:20 18.8 36 5.8 3.4 32 35 1013.8 0 13.5 20.5 27.5 71.5 59.5 202.8
16 04:10 18.8 37 5.96 3.8 35 39 1013.8 0 13.8 20.7 28.0 73.0 61.3 209.1
16 04:00 18.9 37 5.99 3.9 32 43 1013.9 0 13.9 20.7 28.1 73.2 61.6 210.0
16 03:50 19 38 6.19 4.4 30 35 1013.9 0 14.3 21.0 28.7 74.9 63.7 217.6
16 03:40 19.1 38 6.23 4.5 32 35 1014.1 0 14.3 21.0 28.8 75.2 64.1 219.0
16 03:30 19.1 39 6.39 4.8 32 41 1014.1 0 14.7 21.2 29.4 76.6 65.9 225.3
16 03:20 19.2 39 6.43 4.9 32 35 1014.1 0 14.8 21.3 29.5 76.9 66.3 226.6
16 03:10 19.2 40 6.6 5.3 28 32 1014.2 0 15.1 21.5 30.1 78.5 68.2 233.4
16 03:00 19.2 40 6.6 5.3 35 43 1014 0 15.1 21.5 30.1 78.5 68.2 233.4
16 02:50 19.3 40 6.63 5.4 33 39 1014.1 0 15.2 21.5 30.1 78.7 68.5 234.3
16 02:40 19.4 40 6.67 5.5 30 35 1014.3 0 15.3 21.6 30.2 79.0 68.9 235.7
16 02:30 19.4 40 6.67 5.5 35 48 1014.3 0 15.3 21.6 30.2 79.0 68.9 235.7

Last Refresh: 16-Jan-2021 19:18:34

Most of the information presented on this site is sourced from the Bureau of Meteorology.  Copyright in all material sourced from the Bureau of Meteorology resides with the Commonwealth of Australia.